Time;durP1;ratioP1;P1;durP2;ratioP2;P2;SDS_P1;SDS_P2;PMS_P1;PMS_P2;Temp;Humidity;BMP_temperature;BMP_pressure;BME280_temperature;BME280_humidity;BME280_pressure;Samples;Min_cycle;Max_cycle;Signal;HPM_P1;HPM_P2
2023/05/12 00:00:46;;;;;;;;;1.67;1.67;;;;;16.63;54.75;101089.56;2072937;28;45546;-62
2023/05/12 00:01:47;;;;;;;;;3.75;2.00;;;;;16.63;54.61;101094.06;2071799;28;46645;-64
2023/05/12 00:02:47;;;;;;;;;2.00;2.00;;;;;16.63;54.82;101091.38;2072675;28;46412;-64
2023/05/12 00:03:48;;;;;;;;;1.67;1.33;;;;;16.63;54.42;101088.69;2071418;28;46239;-65
2023/05/12 00:04:48;;;;;;;;;1.33;1.00;;;;;16.64;54.48;101087.75;2072086;28;46515;-64
2023/05/12 00:05:48;;;;;;;;;1.00;1.00;;;;;16.63;54.27;101089.56;2071489;28;46706;-64
2023/05/12 00:06:49;;;;;;;;;3.00;3.00;;;;;16.63;54.48;101089.56;2071908;28;46389;-63
2023/05/12 00:07:49;;;;;;;;;2.00;2.00;;;;;16.62;54.27;101085.16;2070382;28;46294;-65
2023/05/12 00:08:49;;;;;;;;;2.00;1.00;;;;;16.64;54.32;101091.34;2069729;28;46742;-64
2023/05/12 00:09:50;;;;;;;;;2.00;2.00;;;;;16.63;54.37;101089.56;2071770;28;46644;-64
2023/05/12 00:10:50;;;;;;;;;2.33;1.67;;;;;16.63;54.13;101089.56;2071633;28;46389;-66
2023/05/12 00:11:51;;;;;;;;;4.00;1.00;;;;;16.63;54.25;101088.69;2071466;28;46390;-64
2023/05/12 00:12:51;;;;;;;;;2.00;2.00;;;;;16.63;54.02;101091.38;2071343;28;46812;-62
2023/05/12 00:13:53;;;;;;;;;3.33;2.00;;;;;16.62;54.34;101093.19;2071262;28;46513;-64
2023/05/12 00:14:54;;;;;;;;;1.75;1.50;;;;;16.62;53.98;101097.66;2062357;28;46608;-65
2023/05/12 00:15:57;;;;;;;;;2.33;2.33;;;;;16.62;54.11;101092.31;2071622;28;46849;-64
2023/05/12 00:16:57;;;;;;;;;2.75;2.75;;;;;16.62;53.67;101090.50;2071075;28;45673;-64
2023/05/12 00:17:58;;;;;;;;;1.67;1.67;;;;;16.61;53.97;101090.56;2071945;28;45140;-64
2023/05/12 00:18:58;;;;;;;;;4.67;3.67;;;;;16.61;54.12;101087.91;2071370;28;46560;-65
2023/05/12 00:19:58;;;;;;;;;4.00;2.67;;;;;16.61;54.01;101091.44;2071829;28;46305;-63
2023/05/12 00:20:59;;;;;;;;;1.00;1.00;;;;;16.61;54.00;101091.44;2071503;28;46202;-63
2023/05/12 00:21:59;;;;;;;;;1.67;1.67;;;;;16.60;54.11;101089.69;2071944;28;46737;-64
2023/05/12 00:22:59;;;;;;;;;2.00;2.00;;;;;16.58;53.58;101088.03;2071231;28;47104;-63
2023/05/12 00:24:00;;;;;;;;;3.00;2.00;;;;;16.56;54.28;101081.88;2063247;28;46808;-62
2023/05/12 00:25:00;;;;;;;;;0.67;0.67;;;;;16.56;53.96;101087.22;2061949;28;46596;-66
2023/05/12 00:26:00;;;;;;;;;2.00;2.00;;;;;16.54;53.45;101092.66;2075774;28;46690;-62
2023/05/12 00:27:01;;;;;;;;;3.00;3.00;;;;;16.53;54.07;101090.91;2075929;28;46239;-64
2023/05/12 00:28:01;;;;;;;;;2.00;2.00;;;;;16.52;54.03;101085.63;2071929;28;46728;-64
2023/05/12 00:29:01;;;;;;;;;2.00;1.00;;;;;16.51;53.86;101092.75;2067470;28;46370;-64
2023/05/12 00:30:02;;;;;;;;;1.00;1.00;;;;;16.49;53.81;101087.44;2071995;28;46478;-63
2023/05/12 00:31:03;;;;;;;;;2.00;2.00;;;;;16.50;53.62;101096.34;2071613;28;46654;-65
2023/05/12 00:32:03;;;;;;;;;1.67;1.67;;;;;16.47;53.79;101093.81;2068693;28;46740;-64
2023/05/12 00:33:04;;;;;;;;;1.00;1.00;;;;;16.46;53.82;101094.75;2071816;28;46326;-64
2023/05/12 00:34:04;;;;;;;;;2.00;2.00;;;;;16.44;53.91;101092.13;2079170;28;46595;-63
2023/05/12 00:35:05;;;;;;;;;2.00;2.00;;;;;16.44;53.99;101091.25;2078680;28;46470;-65
2023/05/12 00:36:06;;;;;;;;;3.00;2.00;;;;;16.42;53.63;101085.97;2071221;28;47004;-64
2023/05/12 00:37:07;;;;;;;;;5.50;3.50;;;;;16.42;53.41;101087.78;2071397;28;45800;-63
2023/05/12 00:38:07;;;;;;;;;2.00;2.00;;;;;16.41;53.44;101089.59;2071882;28;46865;-65
2023/05/12 00:39:09;;;;;;;;;4.00;2.33;;;;;16.40;53.94;101085.16;2071978;28;46722;-64
2023/05/12 00:40:09;;;;;;;;;2.50;2.00;;;;;16.41;53.64;101091.41;2071173;28;46879;-64
2023/05/12 00:41:10;;;;;;;;;2.67;2.67;;;;;16.40;53.71;101086.97;2071212;28;46603;-64
2023/05/12 00:42:11;;;;;;;;;1.00;1.00;;;;;16.40;53.63;101086.97;2071790;28;46274;-65
2023/05/12 00:43:11;;;;;;;;;2.50;1.00;;;;;16.40;53.35;101084.28;2072688;28;46776;-64
2023/05/12 00:44:11;;;;;;;;;3.00;1.00;;;;;16.38;53.50;101086.13;2062106;28;46822;-63
2023/05/12 00:45:12;;;;;;;;;1.67;1.67;;;;;16.37;53.60;101084.38;2056220;28;46234;-63
2023/05/12 00:46:13;;;;;;;;;1.00;1.00;;;;;16.36;53.46;101082.66;2079601;28;45204;-64
2023/05/12 00:47:13;;;;;;;;;1.00;1.00;;;;;16.35;53.11;101079.09;2086507;28;46396;-64
2023/05/12 00:48:14;;;;;;;;;1.67;1.67;;;;;16.35;53.76;101083.59;2068466;28;46144;-65
2023/05/12 00:49:15;;;;;;;;;1.00;1.00;;;;;16.33;53.35;101080.97;2071282;28;46118;-64
2023/05/12 00:50:15;;;;;;;;;2.00;1.67;;;;;16.33;53.31;101082.78;2071691;28;46604;-64
2023/05/12 00:51:16;;;;;;;;;0.00;0.00;;;;;16.33;53.60;101083.66;2070375;28;46543;-64
2023/05/12 00:52:16;;;;;;;;;1.67;1.67;;;;;16.34;53.47;101084.53;2071904;28;46474;-64
2023/05/12 00:53:17;;;;;;;;;0.00;0.00;;;;;16.33;53.61;101080.97;2071495;28;46429;-63
2023/05/12 00:54:17;;;;;;;;;1.67;1.67;;;;;16.32;53.54;101081.91;2068466;28;46409;-65
2023/05/12 00:55:18;;;;;;;;;0.67;0.67;;;;;16.33;53.32;101083.66;2067416;28;45908;-65
2023/05/12 00:56:18;;;;;;;;;1.67;1.67;;;;;16.32;53.62;101083.72;2071526;28;46314;-64
2023/05/12 00:57:20;;;;;;;;;1.00;1.00;;;;;16.33;53.40;101082.78;2070776;28;46707;-64
2023/05/12 00:58:21;;;;;;;;;1.00;1.00;;;;;16.32;53.48;101073.00;2070719;28;46368;-64
2023/05/12 00:59:21;;;;;;;;;1.00;1.00;;;;;16.31;53.57;101079.28;2075558;28;46515;-64
2023/05/12 01:00:21;;;;;;;;;1.67;1.67;;;;;16.31;53.31;101080.16;2077895;28;46626;-64
2023/05/12 01:01:22;;;;;;;;;1.00;1.00;;;;;16.30;52.88;101088.25;2078430;28;46633;-64
2023/05/12 01:02:23;;;;;;;;;1.00;1.00;;;;;16.29;53.48;101078.50;2070430;28;46379;-63
2023/05/12 01:15:07;;;;;;;;;3.00;2.25;;;;;16.18;53.19;101073.53;1686607;28;47409;-65
2023/05/12 01:16:12;;;;;;;;;2.25;2.25;;;;;16.19;53.56;101077.97;2071529;28;46687;-65
2023/05/12 01:17:16;;;;;;;;;1.00;1.00;;;;;16.20;53.72;101074.34;2069435;28;46936;-64
2023/05/12 01:18:20;;;;;;;;;1.00;1.00;;;;;16.21;53.42;101077.91;2070526;28;45717;-63
2023/05/12 01:19:33;;;;;;;;;0.25;0.25;;;;;16.19;53.57;101080.66;2070785;28;46591;-64
2023/05/12 01:20:34;;;;;;;;;3.75;2.25;;;;;16.19;53.34;101081.50;2071199;28;46547;-64
2023/05/12 01:21:34;;;;;;;;;2.67;2.67;;;;;16.21;53.53;101084.13;2070752;28;45733;-64
2023/05/12 01:22:36;;;;;;;;;1.00;1.00;;;;;16.21;53.59;101077.91;2063197;28;46350;-64
2023/05/12 01:23:43;;;;;;;;;3.00;1.75;;;;;16.22;53.60;101088.56;2069855;28;46907;-64
2023/05/12 01:24:53;;;;;;;;;2.50;2.50;;;;;16.22;53.29;101077.84;2064041;28;47236;-65
2023/05/12 01:25:54;;;;;;;;;2.75;1.75;;;;;16.23;53.68;101076.03;2070119;28;46405;-65
2023/05/12 01:26:54;;;;;;;;;4.00;3.00;;;;;16.23;53.46;101084.06;2069770;28;46844;-65
2023/05/12 01:27:55;;;;;;;;;2.00;2.00;;;;;16.23;53.66;101081.38;2070333;28;46583;-65
2023/05/12 01:28:56;;;;;;;;;1.50;1.00;;;;;16.23;53.54;101084.94;2070514;28;46951;-65
2023/05/12 01:29:59;;;;;;;;;1.00;1.00;;;;;16.22;53.68;101083.19;2071305;28;46206;-64
2023/05/12 01:31:00;;;;;;;;;1.50;1.50;;;;;16.23;53.93;101084.94;2070464;28;45486;-66
2023/05/12 01:32:00;;;;;;;;;1.00;1.00;;;;;16.23;53.37;101082.25;2071516;28;46625;-65
2023/05/12 01:33:02;;;;;;;;;2.50;1.25;;;;;16.23;53.85;101076.91;2070367;28;46457;-65
2023/05/12 01:34:02;;;;;;;;;2.00;2.00;;;;;16.22;53.48;101077.84;2070479;28;46339;-65
2023/05/12 01:35:03;;;;;;;;;1.00;1.00;;;;;16.21;53.56;101084.13;2070856;28;46189;-66
2023/05/12 01:36:04;;;;;;;;;4.00;3.00;;;;;16.21;53.58;101086.81;2070996;28;45903;-64
2023/05/12 01:37:04;;;;;;;;;0.33;0.33;;;;;16.20;54.00;101079.72;2070985;28;46698;-65
2023/05/12 01:38:05;;;;;;;;;1.67;1.33;;;;;16.20;53.99;101082.38;2072266;28;46122;-64
2023/05/12 01:39:05;;;;;;;;;2.33;1.00;;;;;16.19;53.51;101076.16;2071450;28;46637;-64
2023/05/12 01:40:06;;;;;;;;;1.00;1.00;;;;;16.21;53.87;101084.13;2070817;28;46403;-65
2023/05/12 01:41:07;;;;;;;;;0.75;0.75;;;;;16.22;53.81;101082.31;2071046;28;46528;-64
2023/05/12 01:42:07;;;;;;;;;1.33;1.33;;;;;16.22;53.54;101087.69;2070569;28;46379;-64
2023/05/12 01:43:07;;;;;;;;;1.67;1.67;;;;;16.22;54.14;101087.69;2070550;28;46086;-64
2023/05/12 01:44:08;;;;;;;;;3.00;2.00;;;;;16.23;53.69;101089.41;2070771;28;46741;-64
2023/05/12 01:45:09;;;;;;;;;2.33;1.33;;;;;16.23;53.54;101081.38;2069799;28;47112;-63
2023/05/12 01:46:09;;;;;;;;;3.00;3.00;;;;;16.23;53.70;101089.41;2069921;28;47349;-64
2023/05/12 01:47:10;;;;;;;;;1.33;1.33;;;;;16.23;53.54;101084.06;2070983;28;46512;-64
2023/05/12 01:48:10;;;;;;;;;1.00;1.00;;;;;16.23;53.61;101084.06;2071187;28;46423;-65
2023/05/12 01:49:10;;;;;;;;;1.00;1.00;;;;;16.24;53.81;101083.13;2071388;28;46592;-66
2023/05/12 01:50:11;;;;;;;;;2.33;1.33;;;;;16.24;53.77;101083.13;2068550;28;46226;-64
2023/05/12 01:51:11;;;;;;;;;1.00;1.00;;;;;16.24;53.90;101078.66;2069768;28;46932;-64
2023/05/12 01:52:11;;;;;;;;;2.00;2.00;;;;;16.24;54.02;101080.44;2071870;28;46766;-64
2023/05/12 01:53:12;;;;;;;;;1.33;1.33;;;;;16.23;53.57;101084.94;2071449;28;46555;-64
2023/05/12 01:54:12;;;;;;;;;2.00;2.00;;;;;16.23;53.53;101084.06;2070417;28;46393;-64
2023/05/12 01:55:13;;;;;;;;;1.33;1.33;;;;;16.22;53.55;101079.66;2070253;28;46198;-64
2023/05/12 01:56:13;;;;;;;;;2.67;2.67;;;;;16.21;53.83;101086.81;2070364;28;47262;-64
2023/05/12 01:57:13;;;;;;;;;1.00;1.00;;;;;16.20;53.68;101082.38;2070640;28;46360;-64
2023/05/12 01:58:14;;;;;;;;;1.00;1.00;;;;;16.19;53.42;101077.97;2070541;28;46207;-65
2023/05/12 01:59:14;;;;;;;;;2.00;1.00;;;;;16.19;53.79;101081.50;2070043;28;46509;-66
2023/05/12 02:00:15;;;;;;;;;1.00;1.00;;;;;16.19;53.55;101086.00;2070267;28;46785;-66
2023/05/12 02:01:15;;;;;;;;;2.00;0.67;;;;;16.17;53.69;101079.84;2070136;28;46578;-64
2023/05/12 02:02:15;;;;;;;;;2.33;2.33;;;;;16.16;54.00;101081.66;2070953;28;46530;-65
2023/05/12 02:03:15;;;;;;;;;1.00;1.00;;;;;16.15;53.59;101082.56;2070384;28;46721;-64
2023/05/12 02:04:16;;;;;;;;;1.00;1.00;;;;;16.16;53.79;101078.09;2071376;28;45472;-65
2023/05/12 02:05:16;;;;;;;;;2.33;1.33;;;;;16.15;53.76;101087.06;2070337;28;46166;-64
2023/05/12 02:06:16;;;;;;;;;2.67;1.00;;;;;16.13;54.02;101081.78;2070660;28;46792;-64
2023/05/12 02:07:17;;;;;;;;;1.00;1.00;;;;;16.12;54.27;101082.66;2070699;28;46609;-65
2023/05/12 02:08:17;;;;;;;;;1.00;1.00;;;;;16.12;53.97;101085.34;2071264;28;46598;-64
2023/05/12 02:09:17;;;;;;;;;2.67;2.33;;;;;16.11;54.36;101083.59;2070510;28;46256;-63
2023/05/12 02:10:18;;;;;;;;;0.00;0.00;;;;;16.11;53.94;101082.75;2070559;28;46977;-64
2023/05/12 02:11:18;;;;;;;;;1.67;1.67;;;;;16.10;54.38;101083.66;2070530;28;46677;-64
2023/05/12 02:12:18;;;;;;;;;2.00;1.00;;;;;16.11;54.07;101088.09;2071645;28;46779;-64
2023/05/12 02:13:19;;;;;;;;;0.67;0.67;;;;;16.10;54.36;101089.03;2067400;28;46451;-64
2023/05/12 02:14:19;;;;;;;;;1.67;1.67;;;;;16.09;54.11;101082.78;2070344;28;46557;-65
2023/05/12 02:15:19;;;;;;;;;1.00;1.00;;;;;16.09;54.24;101082.78;2069924;28;46621;-64
2023/05/12 02:16:20;;;;;;;;;1.00;1.00;;;;;16.08;54.49;101081.06;2070978;28;46431;-64
2023/05/12 02:17:20;;;;;;;;;1.33;1.33;;;;;16.07;54.26;101079.31;2068352;28;46203;-64
2023/05/12 02:18:20;;;;;;;;;2.33;2.33;;;;;16.07;54.59;101089.16;2070199;28;46530;-64
2023/05/12 02:19:21;;;;;;;;;2.67;2.67;;;;;16.07;54.49;101081.13;2070545;28;45401;-64
2023/05/12 02:20:21;;;;;;;;;1.00;1.00;;;;;16.05;54.32;101078.50;2071191;28;46242;-64
2023/05/12 02:21:21;;;;;;;;;1.00;1.00;;;;;16.06;54.58;101084.72;2069652;28;46753;-64
2023/05/12 02:22:22;;;;;;;;;1.33;1.33;;;;;16.05;54.74;101081.19;2071634;28;46598;-65
2023/05/12 02:23:22;;;;;;;;;3.67;3.67;;;;;16.03;54.77;101083.06;2070815;28;46478;-64
2023/05/12 02:24:23;;;;;;;;;2.33;2.33;;;;;16.02;54.82;101077.75;2070523;28;46819;-69
2023/05/12 02:25:23;;;;;;;;;1.00;1.00;;;;;16.01;54.75;101082.25;2073558;28;46609;-66
2023/05/12 02:26:23;;;;;;;;;2.67;2.00;;;;;16.00;54.79;101083.16;2064190;28;46228;-64
2023/05/12 02:27:24;;;;;;;;;2.00;2.00;;;;;16.01;55.08;101081.38;2068550;28;46595;-65
2023/05/12 02:28:24;;;;;;;;;4.00;3.67;;;;;16.00;55.02;101082.28;2070660;28;46665;-64
2023/05/12 02:29:24;;;;;;;;;3.33;3.33;;;;;16.00;54.50;101083.16;2070493;28;46575;-65
2023/05/12 02:30:25;;;;;;;;;1.67;1.00;;;;;15.98;54.66;101076.09;2063750;28;45214;-64
2023/05/12 02:31:25;;;;;;;;;4.33;4.33;;;;;15.98;54.72;101078.78;2069652;28;46219;-64
2023/05/12 02:32:28;;;;;;;;;4.00;3.00;;;;;15.96;54.85;101076.16;2069590;28;46387;-65
2023/05/12 02:33:29;;;;;;;;;4.00;2.50;;;;;15.95;55.04;101077.09;2070612;28;45495;-64
2023/05/12 02:34:29;;;;;;;;;1.67;1.67;;;;;15.95;55.01;101078.91;2070755;28;46632;-64
2023/05/12 02:35:30;;;;;;;;;3.00;2.67;;;;;15.93;55.21;101081.66;2070388;28;45947;-65
2023/05/12 02:36:31;;;;;;;;;2.75;2.75;;;;;15.94;55.24;101077.16;2071419;28;46743;-65
2023/05/12 02:37:31;;;;;;;;;4.33;3.00;;;;;15.93;55.26;101081.66;2070349;28;46539;-64
2023/05/12 02:38:32;;;;;;;;;2.00;2.00;;;;;15.93;54.95;101078.09;2071125;28;46167;-63
2023/05/12 02:39:32;;;;;;;;;4.00;2.67;;;;;15.90;55.52;101081.78;2069709;28;46201;-64
2023/05/12 02:40:32;;;;;;;;;4.00;2.00;;;;;15.91;55.26;101074.63;2070977;28;46272;-64
2023/05/12 02:41:33;;;;;;;;;3.00;3.00;;;;;15.89;55.42;101074.69;2066598;28;46614;-64
2023/05/12 02:42:35;;;;;;;;;5.33;2.67;;;;;15.89;55.35;101074.69;2071242;28;46463;-64
2023/05/12 02:43:35;;;;;;;;;1.50;0.75;;;;;15.88;55.61;101073.81;2070352;28;47121;-65
2023/05/12 02:44:35;;;;;;;;;3.33;2.33;;;;;15.88;55.77;101070.25;2070353;28;46255;-64
2023/05/12 02:45:36;;;;;;;;;1.67;1.67;;;;;15.88;55.65;101076.47;2070837;28;46793;-64
2023/05/12 02:46:36;;;;;;;;;3.00;3.00;;;;;15.88;55.62;101075.63;2072002;28;46363;-66
2023/05/12 02:47:37;;;;;;;;;2.33;2.33;;;;;15.87;55.22;101073.84;2063171;28;46561;-64
2023/05/12 02:48:37;;;;;;;;;1.33;1.33;;;;;15.87;55.66;101076.50;2072765;28;46375;-64
2023/05/12 02:49:37;;;;;;;;;1.33;1.33;;;;;15.86;55.72;101072.09;2070972;28;46472;-63
2023/05/12 02:50:38;;;;;;;;;2.00;2.00;;;;;15.85;55.72;101076.56;2073052;28;46203;-65
2023/05/12 02:51:38;;;;;;;;;1.67;1.33;;;;;15.84;55.44;101072.16;2070630;28;46706;-64
2023/05/12 02:52:38;;;;;;;;;2.33;2.33;;;;;15.85;55.60;101081.06;2069358;28;47020;-64
2023/05/12 02:53:39;;;;;;;;;3.67;3.67;;;;;15.86;55.78;101072.09;2072260;28;46565;-63
2023/05/12 02:54:39;;;;;;;;;4.00;2.33;;;;;15.84;55.56;101080.19;2072924;28;45587;-64
2023/05/12 02:55:39;;;;;;;;;2.33;2.33;;;;;15.84;55.64;101079.31;2078621;28;46681;-64
2023/05/12 02:56:40;;;;;;;;;3.67;3.00;;;;;15.83;55.79;101078.44;2080384;28;46617;-64
2023/05/12 02:57:41;;;;;;;;;1.67;1.67;;;;;15.82;55.92;101078.50;2079255;28;46647;-65
2023/05/12 02:58:41;;;;;;;;;2.50;1.50;;;;;15.81;55.37;101077.63;2063249;28;46589;-63
2023/05/12 02:59:42;;;;;;;;;2.33;2.33;;;;;15.81;55.33;101076.75;2061504;28;46355;-64
2023/05/12 03:00:42;;;;;;;;;1.33;1.33;;;;;15.80;55.76;101077.69;2072656;28;46643;-64
2023/05/12 03:01:42;;;;;;;;;2.00;2.00;;;;;15.79;55.57;101075.94;2067931;28;46107;-65
2023/05/12 03:02:43;;;;;;;;;2.00;2.00;;;;;15.78;55.28;101076.88;2072165;28;46323;-64
2023/05/12 03:03:43;;;;;;;;;5.00;3.00;;;;;15.76;55.84;101081.41;2070739;28;46677;-65
2023/05/12 03:04:43;;;;;;;;;2.33;2.33;;;;;15.75;55.81;101082.31;2080113;28;46424;-65
2023/05/12 03:05:44;;;;;;;;;2.33;2.33;;;;;15.73;55.98;101082.38;2078238;28;47033;-65
2023/05/12 03:06:44;;;;;;;;;2.00;2.00;;;;;15.73;55.77;101077.03;2072661;28;46508;-64
2023/05/12 03:07:47;;;;;;;;;2.00;2.00;;;;;15.72;56.18;101080.63;2070725;28;46784;-65
2023/05/12 03:08:47;;;;;;;;;1.00;1.00;;;;;15.70;55.59;101077.16;2072896;28;46901;-66
2023/05/12 03:09:48;;;;;;;;;2.33;2.33;;;;;15.70;55.56;101081.63;2070966;28;46334;-64
2023/05/12 03:10:48;;;;;;;;;3.33;3.00;;;;;15.68;55.53;101087.03;2072581;28;46743;-62
2023/05/12 03:11:49;;;;;;;;;3.00;3.00;;;;;15.68;56.10;101076.34;2070353;28;46335;-66
2023/05/12 03:12:49;;;;;;;;;1.33;1.33;;;;;15.68;55.90;101078.16;2071636;28;46842;-65
2023/05/12 03:13:49;;;;;;;;;3.00;2.00;;;;;15.65;55.77;101075.59;2070311;28;46557;-64
2023/05/12 03:14:50;;;;;;;;;2.00;1.00;;;;;15.64;55.77;101074.72;2071747;28;46346;-64
2023/05/12 03:15:50;;;;;;;;;4.00;2.00;;;;;15.65;56.16;101080.94;2071492;28;46570;-63
2023/05/12 03:16:50;;;;;;;;;4.00;3.00;;;;;15.64;55.92;101073.84;2071565;28;46762;-65
2023/05/12 03:17:51;;;;;;;;;2.00;2.00;;;;;15.64;56.25;101076.53;2071166;28;45500;-64
2023/05/12 03:18:51;;;;;;;;;2.00;2.00;;;;;15.63;55.77;101080.13;2071710;28;46445;-65
2023/05/12 03:19:51;;;;;;;;;2.67;2.67;;;;;15.61;56.43;101077.47;2071955;28;46557;-64
2023/05/12 03:20:52;;;;;;;;;3.33;2.67;;;;;15.59;56.28;101071.28;2071291;28;46455;-63
2023/05/12 03:21:53;;;;;;;;;2.33;2.33;;;;;15.57;56.21;101071.34;2071237;28;46498;-65
2023/05/12 03:22:53;;;;;;;;;2.00;2.00;;;;;15.56;56.22;101074.97;2071119;28;46729;-64
2023/05/12 03:23:54;;;;;;;;;4.33;4.33;;;;;15.56;56.54;101069.59;2071476;28;46272;-64
2023/05/12 03:24:54;;;;;;;;;2.33;2.33;;;;;15.56;56.59;101074.09;2070916;28;46375;-64
2023/05/12 03:25:54;;;;;;;;;4.67;3.67;;;;;15.54;56.46;101081.28;2072058;28;46190;-65
2023/05/12 03:26:55;;;;;;;;;4.00;3.00;;;;;15.53;56.24;101074.19;2071778;28;46994;-64
2023/05/12 03:27:55;;;;;;;;;3.67;2.33;;;;;15.52;56.44;101078.69;2070791;28;46409;-64
2023/05/12 03:28:55;;;;;;;;;5.33;3.67;;;;;15.52;56.47;101069.78;2067400;28;46353;-64
2023/05/12 03:29:56;;;;;;;;;2.00;2.00;;;;;15.51;56.19;101076.94;2068498;28;46168;-64
2023/05/12 03:30:56;;;;;;;;;2.00;2.00;;;;;15.50;56.46;101075.19;2071721;28;46284;-64
2023/05/12 03:31:57;;;;;;;;;4.67;4.33;;;;;15.47;56.67;101072.59;2072366;28;46696;-64
2023/05/12 03:32:57;;;;;;;;;4.33;4.33;;;;;15.47;56.50;101077.09;2071000;28;46395;-65
2023/05/12 03:33:57;;;;;;;;;5.00;4.00;;;;;15.46;56.37;101072.66;2071395;28;46633;-65
2023/05/12 03:34:58;;;;;;;;;5.33;4.00;;;;;15.44;56.48;101078.06;2070749;28;46162;-63
2023/05/12 03:35:58;;;;;;;;;4.67;4.00;;;;;15.44;56.43;101072.72;2071238;28;46348;-64
2023/05/12 03:36:59;;;;;;;;;5.33;3.67;;;;;15.44;56.35;101071.84;2071267;28;46290;-65
2023/05/12 03:37:59;;;;;;;;;3.33;2.33;;;;;15.41;56.73;101069.28;2072221;28;46627;-65
2023/05/12 03:39:01;;;;;;;;;2.00;2.00;;;;;15.41;56.88;101071.97;2071727;28;46520;-64
2023/05/12 03:40:02;;;;;;;;;3.00;3.00;;;;;15.40;56.56;101073.78;2068253;28;46515;-64
2023/05/12 03:41:04;;;;;;;;;0.80;0.80;;;;;15.38;56.99;101074.75;2071266;28;46738;-66
2023/05/12 03:42:05;;;;;;;;;3.00;2.75;;;;;15.37;56.83;101076.53;2071744;28;47282;-64
2023/05/12 03:43:05;;;;;;;;;2.00;2.00;;;;;15.35;56.88;101080.19;2070613;28;46819;-64
2023/05/12 03:44:07;;;;;;;;;4.00;4.00;;;;;15.34;57.00;101073.97;2069980;28;46469;-64
2023/05/12 03:45:08;;;;;;;;;3.00;3.00;;;;;15.32;56.60;101076.72;2071848;28;46619;-65
2023/05/12 03:46:08;;;;;;;;;4.60;3.00;;;;;15.30;56.68;101073.22;2072055;28;46268;-65
2023/05/12 03:47:08;;;;;;;;;2.67;2.67;;;;;15.30;56.94;101075.03;2071682;28;45788;-64
2023/05/12 03:48:09;;;;;;;;;2.50;2.50;;;;;15.30;57.23;101075.03;2071384;28;45508;-66
2023/05/12 03:49:10;;;;;;;;;3.00;3.00;;;;;15.30;56.97;101072.34;2071080;28;45615;-66
2023/05/12 03:50:10;;;;;;;;;3.33;3.33;;;;;15.30;56.82;101075.91;2072889;28;45911;-66
2023/05/12 03:51:11;;;;;;;;;2.67;2.33;;;;;15.30;57.14;101078.56;2068288;28;47006;-64
2023/05/12 03:52:12;;;;;;;;;5.33;4.33;;;;;15.29;56.83;101076.81;2072769;28;48172;-65
2023/05/12 03:53:12;;;;;;;;;2.67;2.33;;;;;15.30;56.97;101077.69;2071732;28;46252;-66
2023/05/12 03:54:12;;;;;;;;;4.00;3.33;;;;;15.29;56.83;101078.63;2071528;28;46527;-66
2023/05/12 03:55:13;;;;;;;;;1.67;1.67;;;;;15.29;57.08;101082.16;2068801;28;46635;-65
2023/05/12 03:56:14;;;;;;;;;3.33;3.33;;;;;15.29;57.22;101076.81;2070864;28;46288;-66
2023/05/12 03:57:14;;;;;;;;;3.00;3.00;;;;;15.29;56.99;101078.63;2070137;28;46380;-67
2023/05/12 03:58:15;;;;;;;;;3.00;2.67;;;;;15.28;56.73;101075.09;2070913;28;46656;-67
2023/05/12 03:59:15;;;;;;;;;2.75;2.75;;;;;15.27;57.21;101080.50;2071853;28;46207;-66
2023/05/12 04:00:16;;;;;;;;;3.00;3.00;;;;;15.27;57.31;101081.34;2072111;28;46535;-66
2023/05/12 04:01:16;;;;;;;;;3.00;3.00;;;;;15.27;57.11;101078.69;2071066;28;46066;-66
2023/05/12 04:02:17;;;;;;;;;3.00;2.33;;;;;15.28;56.84;101082.22;2062953;28;46756;-66
2023/05/12 04:03:17;;;;;;;;;4.00;3.00;;;;;15.28;57.08;101082.22;2061187;28;46436;-65
2023/05/12 04:04:18;;;;;;;;;0.00;0.00;;;;;15.28;56.83;101084.91;2070732;28;46873;-67
2023/05/12 04:05:18;;;;;;;;;3.00;3.00;;;;;15.29;56.81;101078.63;2062746;28;45541;-65
2023/05/12 04:06:18;;;;;;;;;2.00;2.00;;;;;15.29;57.29;101083.97;2070680;28;46663;-66
2023/05/12 04:07:19;;;;;;;;;2.67;2.33;;;;;15.29;56.89;101081.31;2069991;28;46184;-65
2023/05/12 04:08:19;;;;;;;;;3.67;2.00;;;;;15.29;56.98;101087.53;2071664;28;47135;-70
2023/05/12 04:09:20;;;;;;;;;3.00;3.00;;;;;15.29;57.37;101084.84;2073386;28;46296;-65
2023/05/12 04:10:21;;;;;;;;;1.67;1.67;;;;;15.29;56.76;101084.84;2071767;28;46828;-66
2023/05/12 04:11:22;;;;;;;;;3.00;3.00;;;;;15.30;56.96;101083.03;2070333;28;46476;-64
2023/05/12 04:12:22;;;;;;;;;1.75;1.75;;;;;15.30;57.23;101081.25;2071535;28;45701;-65
2023/05/12 04:13:24;;;;;;;;;2.00;2.00;;;;;15.29;56.84;101075.94;2071510;28;46501;-65
2023/05/12 04:14:24;;;;;;;;;3.60;3.60;;;;;15.29;57.08;101082.16;2072517;28;46459;-64
2023/05/12 04:15:25;;;;;;;;;1.50;1.50;;;;;15.30;57.47;101089.25;2071343;28;46220;-65
2023/05/12 04:16:25;;;;;;;;;2.00;2.00;;;;;15.29;57.63;101092.88;2072424;28;46957;-65
2023/05/12 04:17:25;;;;;;;;;2.67;2.00;;;;;15.30;57.00;101083.91;2072020;28;46499;-64
2023/05/12 04:18:27;;;;;;;;;2.00;2.00;;;;;15.29;56.82;101083.97;2071994;28;46021;-64
2023/05/12 04:19:27;;;;;;;;;3.00;2.25;;;;;15.29;56.62;101081.31;2071942;28;46776;-64
2023/05/12 04:20:28;;;;;;;;;1.00;1.00;;;;;15.29;56.95;101090.19;2071725;28;46446;-65
2023/05/12 04:21:28;;;;;;;;;1.67;1.67;;;;;15.28;57.10;101083.09;2071956;28;46409;-66
2023/05/12 04:22:29;;;;;;;;;3.00;3.00;;;;;15.27;56.69;101084.03;2070891;28;46697;-66
2023/05/12 04:23:29;;;;;;;;;4.00;3.00;;;;;15.26;57.07;101087.63;2061481;28;46154;-65
2023/05/12 04:24:30;;;;;;;;;1.33;1.33;;;;;15.26;56.71;101084.09;2068268;28;46521;-66
2023/05/12 04:25:30;;;;;;;;;3.00;3.00;;;;;15.24;57.14;101078.78;2070880;28;46478;-65
2023/05/12 04:26:31;;;;;;;;;4.00;3.00;;;;;15.24;56.47;101075.22;2071074;28;46769;-64
2023/05/12 04:27:31;;;;;;;;;3.33;1.67;;;;;15.24;56.37;101080.56;2071186;28;45243;-65
2023/05/12 04:28:31;;;;;;;;;2.00;2.00;;;;;15.25;56.60;101077.88;2072418;28;45385;-66
2023/05/12 04:29:32;;;;;;;;;2.33;2.33;;;;;15.24;56.11;101081.44;2069177;28;45262;-64
2023/05/12 04:30:32;;;;;;;;;3.00;3.00;;;;;15.25;55.97;101079.66;2071962;28;46707;-65
2023/05/12 04:31:32;;;;;;;;;1.67;1.67;;;;;15.23;56.37;101081.50;2085009;28;48084;-64
2023/05/12 04:32:33;;;;;;;;;2.00;1.00;;;;;15.23;55.83;101078.81;2087540;28;46920;-66
2023/05/12 04:33:33;;;;;;;;;2.00;2.00;;;;;15.24;55.30;101085.91;2071324;28;46439;-67
2023/05/12 04:34:34;;;;;;;;;2.33;2.33;;;;;15.23;54.96;101086.84;2067736;28;47644;-66
2023/05/12 04:35:35;;;;;;;;;2.00;2.00;;;;;15.23;55.20;101084.16;2070830;28;46072;-66
2023/05/12 04:36:35;;;;;;;;;2.00;1.00;;;;;15.22;54.52;101083.31;2071254;28;46617;-66
2023/05/12 04:37:35;;;;;;;;;3.33;2.00;;;;;15.24;54.90;101085.91;2069183;28;46428;-65
2023/05/12 04:38:36;;;;;;;;;4.00;2.00;;;;;15.24;54.55;101089.47;2070809;28;46696;-66
2023/05/12 04:39:36;;;;;;;;;3.33;3.33;;;;;15.24;54.80;101091.25;2068580;28;47111;-65
2023/05/12 04:40:36;;;;;;;;;0.67;0.67;;;;;15.24;54.33;101083.25;2063206;28;46269;-65
2023/05/12 04:41:37;;;;;;;;;2.00;2.00;;;;;15.24;54.14;101080.56;2062772;28;47250;-64
2023/05/12 04:42:37;;;;;;;;;0.67;0.00;;;;;15.24;54.39;101080.56;2071280;28;45726;-65
2023/05/12 04:43:38;;;;;;;;;2.33;2.00;;;;;15.24;54.14;101077.91;2070100;28;46566;-65
2023/05/12 04:44:38;;;;;;;;;0.00;0.00;;;;;15.23;53.83;101093.06;2072491;28;46213;-66
2023/05/12 04:45:38;;;;;;;;;2.00;2.00;;;;;15.23;53.67;101086.84;2070607;28;46223;-66
2023/05/12 04:46:39;;;;;;;;;2.33;1.67;;;;;15.23;53.50;101089.53;2070818;28;46263;-65
2023/05/12 04:47:39;;;;;;;;;1.67;1.67;;;;;15.23;53.65;101095.75;2061990;28;46240;-66
2023/05/12 04:48:41;;;;;;;;;2.00;1.00;;;;;15.26;53.74;101089.44;2072518;28;46346;-66
2023/05/12 04:49:42;;;;;;;;;3.00;0.50;;;;;15.27;53.50;101085.84;2069459;28;47349;-65
2023/05/12 04:50:42;;;;;;;;;2.00;1.00;;;;;15.26;53.43;101092.97;2072457;28;46806;-64
2023/05/12 04:51:43;;;;;;;;;3.00;2.00;;;;;15.27;53.07;101084.03;2070832;28;46718;-66
2023/05/12 04:52:43;;;;;;;;;2.00;0.00;;;;;15.25;52.52;101085.03;2072082;28;46603;-66
2023/05/12 04:53:44;;;;;;;;;1.00;1.00;;;;;15.25;52.88;101085.03;2070373;28;46327;-64